Time;durP1;ratioP1;P1;durP2;ratioP2;P2;SDS_P1;SDS_P2;PMS_P1;PMS_P2;Temp;Humidity;BMP_temperature;BMP_pressure;BME280_temperature;BME280_humidity;BME280_pressure;Samples;Min_cycle;Max_cycle;Signal;HPM_P1;HPM_P2
2022/07/03 00:00:42;;;;;;;4.95;2.00;;;17.70;99.90;;;;;;5077155;28;20079;-81
2022/07/03 00:03:07;;;;;;;6.18;2.17;;;17.70;99.90;;;;;;5065686;28;20075;-80
2022/07/03 00:05:34;;;;;;;6.32;1.92;;;17.70;99.90;;;;;;5076948;28;20055;-81
2022/07/03 00:07:59;;;;;;;7.05;2.60;;;17.60;99.90;;;;;;5059405;28;20040;-81
2022/07/03 00:10:25;;;;;;;4.32;2.30;;;17.60;99.90;;;;;;5091955;28;20051;-81
2022/07/03 00:12:51;;;;;;;3.90;1.88;;;17.60;99.90;;;;;;5102928;28;20079;-81
2022/07/03 00:15:16;;;;;;;4.47;2.00;;;17.60;99.90;;;;;;5070476;28;20044;-80
2022/07/03 00:17:42;;;;;;;4.63;1.80;;;17.50;99.90;;;;;;5076678;28;20048;-81
2022/07/03 00:20:08;;;;;;;6.38;2.53;;;17.50;99.90;;;;;;5083109;28;20043;-80
2022/07/03 00:22:37;;;;;;;5.15;2.63;;;17.50;99.90;;;;;;5075168;28;20078;-80
2022/07/03 00:25:05;;;;;;;5.78;2.40;;;17.60;99.90;;;;;;5107951;28;20047;-80
2022/07/03 00:27:33;;;;;;;4.18;2.20;;;17.40;99.90;;;;;;5077965;28;20043;-80
2022/07/03 00:30:01;;;;;;;3.00;1.70;;;17.40;99.90;;;;;;5069224;28;20048;-80
2022/07/03 00:32:28;;;;;;;4.10;2.00;;;17.30;99.90;;;;;;5058204;28;20769;-80
2022/07/03 00:34:57;;;;;;;5.40;2.20;;;17.30;99.90;;;;;;5056296;28;20544;-80
2022/07/03 00:37:23;;;;;;;5.05;2.10;;;17.20;99.90;;;;;;5115645;27;20039;-80
2022/07/03 00:39:49;;;;;;;6.13;2.28;;;17.20;99.90;;;;;;5073467;28;20040;-80
2022/07/03 00:42:16;;;;;;;4.03;1.90;;;17.10;99.90;;;;;;5075661;28;20065;-80
2022/07/03 00:44:55;;;;;;;5.97;2.42;;;17.00;99.90;;;;;;5067984;28;20796;-80
2022/07/03 00:47:24;;;;;;;6.05;2.20;;;17.00;99.90;;;;;;5102567;27;20040;-80
2022/07/03 00:49:53;;;;;;;6.55;2.30;;;16.90;99.90;;;;;;5072795;28;20044;-80
2022/07/03 00:52:20;;;;;;;4.25;2.45;;;17.00;99.90;;;;;;5077130;28;20590;-80
2022/07/03 00:55:00;;;;;;;4.40;2.30;;;16.80;99.90;;;;;;5082675;28;20689;-81
2022/07/03 00:57:28;;;;;;;5.80;2.22;;;16.80;99.90;;;;;;5076287;28;20589;-79
2022/07/03 00:59:54;;;;;;;4.85;2.33;;;16.70;99.90;;;;;;5070218;28;20163;-81
2022/07/03 01:02:41;;;;;;;2.88;1.95;;;16.70;99.90;;;;;;5079858;28;20057;-80
2022/07/03 01:05:12;;;;;;;6.57;2.65;;;16.70;99.90;;;;;;5073680;28;20731;-80
2022/07/03 01:07:41;;;;;;;6.28;2.50;;;16.60;99.90;;;;;;5106214;27;20090;-80
2022/07/03 01:10:19;;;;;;;4.80;2.30;;;16.50;99.90;;;;;;5112928;27;20036;-80
2022/07/03 01:12:44;;;;;;;3.72;2.50;;;16.50;99.90;;;;;;5072581;28;20044;-80
2022/07/03 01:15:15;;;;;;;6.13;2.97;;;16.40;99.90;;;;;;5073437;28;20578;-80
2022/07/03 01:17:53;;;;;;;6.28;3.13;;;16.40;99.90;;;;;;5112694;27;20047;-81
2022/07/03 01:20:28;;;;;;;6.47;2.85;;;16.40;99.90;;;;;;5113259;27;20131;-80
2022/07/03 01:22:58;;;;;;;5.85;3.03;;;16.30;99.90;;;;;;5081023;28;20040;-80
2022/07/03 01:25:29;;;;;;;5.13;2.80;;;16.30;99.90;;;;;;5068248;28;20036;-80
2022/07/03 01:28:04;;;;;;;6.07;2.92;;;16.30;99.90;;;;;;5075544;28;20067;-80
2022/07/03 01:30:32;;;;;;;5.68;3.03;;;16.20;99.90;;;;;;5090079;28;20052;-81
2022/07/03 01:33:18;;;;;;;6.90;3.20;;;16.20;99.90;;;;;;5074984;28;20120;-80
2022/07/03 01:36:06;;;;;;;5.57;2.75;;;16.10;99.90;;;;;;5108709;27;20687;-80
2022/07/03 01:38:36;;;;;;;4.78;3.03;;;16.10;99.90;;;;;;5069618;28;20097;-81
2022/07/03 01:41:04;;;;;;;6.93;2.92;;;16.00;99.90;;;;;;5077762;28;20105;-80
2022/07/03 01:43:31;;;;;;;3.67;2.42;;;16.00;99.90;;;;;;5073434;28;20133;-80
2022/07/03 01:46:01;;;;;;;5.30;3.45;;;16.00;99.90;;;;;;5110325;27;20052;-80
2022/07/03 01:48:28;;;;;;;6.18;3.20;;;15.90;99.90;;;;;;5078533;28;20698;-81
2022/07/03 01:50:56;;;;;;;4.40;2.95;;;15.90;99.90;;;;;;5074209;28;20059;-80
2022/07/03 01:53:25;;;;;;;3.78;2.88;;;15.90;99.90;;;;;;5080625;28;20087;-80
2022/07/03 01:55:56;;;;;;;6.30;3.42;;;15.90;99.90;;;;;;5080008;28;20047;-80
2022/07/03 01:58:21;;;;;;;4.38;3.17;;;15.80;99.90;;;;;;5080141;28;20548;-80
2022/07/03 02:00:58;;;;;;;5.57;3.08;;;15.80;99.90;;;;;;5072414;28;20109;-80
2022/07/03 02:03:28;;;;;;;6.57;3.40;;;15.70;99.90;;;;;;5101054;27;20058;-80
2022/07/03 02:06:29;;;;;;;6.40;4.15;;;15.70;99.90;;;;;;5073162;28;20059;-80
2022/07/03 02:09:04;;;;;;;5.70;3.88;;;15.70;99.90;;;;;;5072864;28;20530;-80
2022/07/03 02:11:43;;;;;;;6.07;3.78;;;15.60;99.90;;;;;;5111521;27;20129;-80
2022/07/03 02:14:22;;;;;;;7.80;4.07;;;15.60;99.90;;;;;;5074162;28;20099;-80
2022/07/03 02:17:10;;;;;;;8.63;3.88;;;15.60;99.90;;;;;;5071291;28;20569;-80
2022/07/03 02:19:46;;;;;;;8.02;4.22;;;15.50;99.90;;;;;;5073407;28;20046;-80
2022/07/03 02:22:13;;;;;;;6.10;3.90;;;15.50;99.90;;;;;;5110404;27;20047;-80
2022/07/03 02:24:44;;;;;;;8.27;4.20;;;15.50;99.90;;;;;;5075844;28;20044;-79
2022/07/03 02:27:24;;;;;;;5.25;3.85;;;15.50;99.90;;;;;;5068213;28;20054;-79
2022/07/03 02:30:04;;;;;;;6.30;4.05;;;15.50;99.90;;;;;;5073231;28;20040;-80
2022/07/03 02:32:35;;;;;;;7.65;4.55;;;15.40;99.90;;;;;;5107361;27;20040;-80
2022/07/03 02:35:05;;;;;;;6.85;4.15;;;15.40;99.90;;;;;;5073319;28;20044;-79
2022/07/03 02:37:37;;;;;;;6.68;4.20;;;15.40;99.90;;;;;;5106337;27;20056;-79
2022/07/03 02:40:07;;;;;;;7.18;4.30;;;15.30;99.90;;;;;;5105688;27;20048;-80
2022/07/03 02:42:49;;;;;;;6.38;3.80;;;15.30;99.90;;;;;;5104575;27;20048;-79
2022/07/03 02:45:18;;;;;;;;;;;15.30;99.90;;;;;;5076411;28;20084;-80
2022/07/03 02:47:50;;;;;;;5.18;3.65;;;15.30;99.90;;;;;;5068944;28;20053;-80
2022/07/03 02:50:21;;;;;;;5.15;3.90;;;15.30;99.90;;;;;;5075185;28;20044;-80
2022/07/03 02:52:56;;;;;;;5.57;3.50;;;15.20;99.90;;;;;;5111812;27;20079;-80
2022/07/03 02:55:46;;;;;;;6.03;4.05;;;15.20;99.90;;;;;;5107826;27;20043;-80
2022/07/03 02:58:26;;;;;;;6.38;3.70;;;15.20;99.90;;;;;;5072897;28;20129;-80
2022/07/03 03:01:06;;;;;;;4.75;3.30;;;15.20;99.90;;;;;;5104071;27;20052;-80
2022/07/03 03:03:32;;;;;;;7.53;3.65;;;15.10;99.90;;;;;;5110714;27;20115;-79
2022/07/03 03:06:12;;;;;;;5.82;3.85;;;15.10;99.90;;;;;;5088688;28;20035;-80
2022/07/03 03:08:55;;;;;;;6.60;4.30;;;15.10;99.90;;;;;;5077557;28;20047;-79
2022/07/03 03:11:32;;;;;;;6.50;4.25;;;15.00;99.90;;;;;;5068839;28;20697;-80
2022/07/03 03:14:00;;;;;;;5.30;4.13;;;15.00;99.90;;;;;;5075227;28;20040;-80
2022/07/03 03:16:26;;;;;;;5.32;3.90;;;15.00;99.90;;;;;;5109845;27;20048;-80
2022/07/03 03:18:52;;;;;;;6.95;4.30;;;14.90;99.90;;;;;;5068580;28;20044;-80
2022/07/03 03:21:20;;;;;;;7.63;4.32;;;14.90;99.90;;;;;;5072302;28;20679;-80
2022/07/03 03:23:52;;;;;;;5.55;4.28;;;14.90;99.90;;;;;;5076626;28;20040;-80
2022/07/03 03:26:22;;;;;;;5.57;4.07;;;14.80;99.90;;;;;;5068529;28;20152;-80
2022/07/03 03:28:50;;;;;;;5.90;4.18;;;14.90;99.90;;;;;;5076282;28;20058;-79
2022/07/03 03:31:16;;;;;;;6.15;4.18;;;14.80;99.90;;;;;;5075105;28;20044;-79
2022/07/03 03:33:47;;;;;;;8.02;4.30;;;14.80;99.90;;;;;;5072959;28;20039;-79
2022/07/03 03:36:16;;;;;;;5.97;3.72;;;14.90;99.90;;;;;;5068913;28;20150;-79
2022/07/03 03:38:42;;;;;;;6.15;4.38;;;14.90;99.90;;;;;;5077319;28;20099;-79
2022/07/03 03:41:08;;;;;;;7.22;4.47;;;14.90;99.90;;;;;;5069376;28;20534;-79
2022/07/03 03:43:36;;;;;;;6.80;4.20;;;15.00;99.90;;;;;;5112423;27;20056;-79
2022/07/03 03:46:02;;;;;;;5.38;4.10;;;15.00;99.90;;;;;;5076900;28;20043;-79
2022/07/03 03:48:29;;;;;;;6.63;4.40;;;15.00;99.90;;;;;;5071546;28;20047;-79
2022/07/03 03:50:56;;;;;;;8.07;4.45;;;15.10;99.90;;;;;;5071927;28;20039;-79
2022/07/03 03:53:24;;;;;;;6.88;4.78;;;15.10;99.90;;;;;;5069163;28;20075;-79
2022/07/03 03:56:15;;;;;;;9.18;4.47;;;15.10;99.90;;;;;;5078298;28;20570;-79
2022/07/03 03:58:42;;;;;;;6.55;4.40;;;15.00;99.90;;;;;;5063051;28;20711;-79
2022/07/03 04:01:11;;;;;;;6.00;4.15;;;15.00;99.90;;;;;;5071710;28;21000;-80
2022/07/03 04:03:37;;;;;;;8.65;4.22;;;15.00;99.90;;;;;;5075900;28;20048;-80
2022/07/03 04:06:05;;;;;;;7.00;3.63;;;15.00;99.90;;;;;;5075772;28;20044;-80
2022/07/03 04:08:31;;;;;;;6.68;3.65;;;15.00;99.90;;;;;;5057936;28;20074;-80
2022/07/03 04:10:57;;;;;;;7.18;4.10;;;15.00;99.90;;;;;;5069681;28;20071;-80
2022/07/03 04:13:23;;;;;;;5.65;4.05;;;15.00;99.90;;;;;;5078921;28;20699;-79
2022/07/03 04:15:53;;;;;;;7.80;4.40;;;15.00;99.90;;;;;;5078425;28;20048;-80
2022/07/03 04:18:19;;;;;;;6.78;4.20;;;15.00;99.90;;;;;;5082285;28;20046;-80
2022/07/03 04:20:48;;;;;;;5.85;4.15;;;15.00;99.90;;;;;;5073870;28;20494;-79
2022/07/03 04:23:13;;;;;;;6.75;4.35;;;15.00;99.90;;;;;;5108454;27;20052;-79
2022/07/03 04:25:39;;;;;;;5.35;3.97;;;15.00;99.90;;;;;;5077140;28;20036;-79
2022/07/03 04:28:05;;;;;;;8.85;4.82;;;14.90;99.90;;;;;;5074446;28;20040;-80
2022/07/03 04:30:30;;;;;;;6.47;4.13;;;14.90;99.90;;;;;;5076333;28;20040;-80
2022/07/03 04:32:56;;;;;;;5.38;3.97;;;14.90;99.90;;;;;;5080635;28;20073;-80
2022/07/03 04:35:21;;;;;;;5.93;4.47;;;15.00;99.90;;;;;;5104807;27;20048;-80
2022/07/03 04:37:47;;;;;;;6.03;4.53;;;14.90;99.90;;;;;;5073984;28;20159;-80
2022/07/03 04:40:13;;;;;;;6.38;4.05;;;15.20;99.90;;;;;;5076116;28;20070;-80
2022/07/03 04:42:40;;;;;;;7.18;4.88;;;14.90;99.90;;;;;;5079000;28;20040;-81
2022/07/03 04:45:08;;;;;;;6.60;4.82;;;15.00;99.90;;;;;;5076959;28;20059;-80
2022/07/03 04:47:34;;;;;;;5.80;4.25;;;15.00;99.90;;;;;;5111319;27;20139;-79
2022/07/03 04:49:59;;;;;;;6.43;4.90;;;15.00;99.90;;;;;;5079431;28;20200;-80
2022/07/03 04:52:25;;;;;;;10.45;6.10;;;15.00;99.90;;;;;;5075799;28;20044;-80
2022/07/03 04:54:51;;;;;;;7.38;4.50;;;15.00;99.90;;;;;;5077531;28;20048;-80
2022/07/03 04:57:17;;;;;;;8.30;5.03;;;15.00;99.90;;;;;;5075115;28;20784;-79
2022/07/03 04:59:42;;;;;;;5.82;4.28;;;15.00;99.90;;;;;;5080212;28;20060;-80
2022/07/03 05:02:08;;;;;;;5.60;4.22;;;14.90;99.90;;;;;;5075343;28;20054;-80
2022/07/03 05:04:34;;;;;;;6.38;5.25;;;15.00;99.90;;;;;;5112444;27;20132;-80
2022/07/03 05:07:00;;;;;;;7.28;4.68;;;15.00;99.90;;;;;;5080291;28;20036;-80
2022/07/03 05:09:26;;;;;;;9.45;5.28;;;15.00;99.90;;;;;;5086370;28;20048;-80
2022/07/03 05:11:54;;;;;;;7.25;5.10;;;15.00;99.90;;;;;;5076635;28;20460;-80
2022/07/03 05:14:20;;;;;;;6.88;4.85;;;15.10;99.90;;;;;;5081495;28;20132;-80
2022/07/03 05:16:45;;;;;;;6.93;4.85;;;15.10;99.90;;;;;;5080564;28;20055;-80
2022/07/03 05:19:11;;;;;;;9.50;5.50;;;15.10;99.90;;;;;;5076342;28;20079;-80
2022/07/03 05:21:37;;;;;;;7.38;4.85;;;15.10;99.90;;;;;;5081425;28;20203;-80
2022/07/03 05:24:03;;;;;;;7.22;5.30;;;15.20;99.90;;;;;;5087974;28;20687;-80
2022/07/03 05:26:28;;;;;;;7.18;4.45;;;15.20;99.90;;;;;;5081224;28;20051;-80
2022/07/03 05:28:54;;;;;;;6.95;4.80;;;15.20;99.90;;;;;;5078929;28;20044;-81
2022/07/03 05:31:20;;;;;;;6.05;4.70;;;15.30;99.90;;;;;;5077737;28;20169;-80
2022/07/03 05:33:45;;;;;;;8.27;4.85;;;15.30;99.90;;;;;;5115018;27;20052;-80
2022/07/03 05:36:11;;;;;;;8.77;4.88;;;15.40;99.90;;;;;;5081836;28;20047;-80
2022/07/03 05:41:21;;;;;;;9.00;5.07;;;15.50;99.90;;;;;;5081789;28;20475;-80
2022/07/03 05:43:52;;;;;;;5.20;4.30;;;15.60;99.90;;;;;;5079635;28;20051;-79
2022/07/03 05:46:17;;;;;;;7.60;4.75;;;15.60;99.90;;;;;;5078657;28;20048;-80
2022/07/03 05:48:43;;;;;;;7.57;4.40;;;15.70;99.90;;;;;;5080387;28;20063;-80
2022/07/03 05:51:10;;;;;;;8.80;4.28;;;15.70;99.90;;;;;;5085901;28;20086;-81
2022/07/03 05:53:35;;;;;;;5.95;3.83;;;15.80;99.90;;;;;;5073239;28;20126;-82
2022/07/03 05:56:02;;;;;;;5.70;3.72;;;15.90;99.90;;;;;;5112310;27;20045;-81
2022/07/03 05:58:27;;;;;;;4.97;2.97;;;16.00;99.90;;;;;;5086224;28;20098;-81
2022/07/03 06:00:53;;;;;;;5.18;3.08;;;16.30;99.90;;;;;;5081596;28;20134;-81
2022/07/03 06:03:19;;;;;;;4.70;3.08;;;16.40;99.90;;;;;;5083694;28;20052;-82
2022/07/03 06:05:44;;;;;;;7.22;3.10;;;16.60;99.90;;;;;;5080462;28;20047;-81
2022/07/03 06:08:10;;;;;;;4.95;2.67;;;16.80;99.90;;;;;;5080965;28;20044;-82
2022/07/03 06:10:36;;;;;;;7.18;3.00;;;16.90;99.90;;;;;;5095638;28;20032;-81
2022/07/03 06:13:02;;;;;;;8.32;2.83;;;16.90;99.90;;;;;;5075659;28;20062;-81
2022/07/03 06:15:30;;;;;;;14.55;2.83;;;17.00;99.90;;;;;;5076128;28;20051;-81
2022/07/03 06:17:57;;;;;;;7.88;2.70;;;17.10;99.90;;;;;;5078085;28;20040;-81
2022/07/03 06:20:23;;;;;;;5.82;2.65;;;17.20;99.90;;;;;;5083844;28;20048;-92
2022/07/03 06:22:49;;;;;;;4.88;2.10;;;17.30;99.90;;;;;;5118647;27;20117;-83
2022/07/03 06:25:15;;;;;;;4.82;2.25;;;17.40;99.90;;;;;;5076555;28;20078;-80
2022/07/03 06:27:42;;;;;;;4.20;2.15;;;17.40;99.90;;;;;;5076892;28;20048;-85
2022/07/03 06:30:18;;;;;;;7.35;2.35;;;17.50;99.90;;;;;;5083102;28;20059;-88
2022/07/03 06:32:44;;;;;;;3.70;1.92;;;17.60;99.90;;;;;;5088899;28;20667;-85
2022/07/03 06:39:21;;;;;;;5.43;1.90;;;17.70;99.90;;;;;;5066242;28;20083;-85
2022/07/03 06:41:57;;;;;;;3.33;1.50;;;18.20;99.90;;;;;;5015395;28;20131;-81
2022/07/03 06:44:23;;;;;;;3.80;1.40;;;18.30;99.90;;;;;;5006284;28;20398;-84
2022/07/03 06:46:49;;;;;;;8.40;1.67;;;18.60;99.90;;;;;;5054876;28;20044;-81
2022/07/03 06:49:14;;;;;;;5.05;1.80;;;18.50;99.90;;;;;;5080678;28;20072;-81
2022/07/03 06:51:40;;;;;;;6.60;1.77;;;18.70;99.90;;;;;;5080113;28;20613;-81
2022/07/03 06:54:06;;;;;;;4.65;1.58;;;18.80;99.90;;;;;;5080832;28;20188;-81
2022/07/03 06:56:32;;;;;;;4.57;1.30;;;18.90;99.90;;;;;;5078940;28;20032;-81
2022/07/03 06:58:57;;;;;;;6.07;1.13;;;19.00;99.90;;;;;;5079979;28;21774;-82
2022/07/03 07:01:23;;;;;;;4.50;1.05;;;19.10;99.90;;;;;;5078446;28;20051;-82
2022/07/03 07:03:49;;;;;;;3.53;1.13;;;19.20;99.90;;;;;;5078896;28;20047;-82
2022/07/03 07:06:14;;;;;;;4.10;1.10;;;19.20;99.90;;;;;;5079387;28;20130;-81
2022/07/03 07:08:40;;;;;;;3.10;0.95;;;19.30;99.90;;;;;;5081063;28;20168;-81
2022/07/03 07:11:06;;;;;;;4.30;1.10;;;19.40;99.90;;;;;;5075488;28;20540;-81
2022/07/03 07:13:31;;;;;;;5.05;0.80;;;19.20;99.90;;;;;;5079773;28;20856;-81
2022/07/03 07:15:57;;;;;;;2.80;0.95;;;19.20;99.90;;;;;;5079071;28;20593;-81
2022/07/03 07:18:23;;;;;;;5.32;1.00;;;19.30;99.90;;;;;;5078901;28;20063;-81
2022/07/03 07:20:49;;;;;;;2.13;1.05;;;19.40;99.90;;;;;;5080487;28;20048;-81
2022/07/03 07:23:14;;;;;;;4.85;1.08;;;19.50;99.90;;;;;;5079018;28;20821;-81
2022/07/03 07:25:40;;;;;;;3.95;1.10;;;19.70;99.90;;;;;;5078254;28;20049;-81
2022/07/03 07:28:06;;;;;;;7.47;1.30;;;19.80;99.90;;;;;;5079783;28;20070;-81
2022/07/03 07:30:31;;;;;;;3.67;1.20;;;19.80;99.90;;;;;;5105494;27;20514;-81
2022/07/03 07:32:57;;;;;;;2.95;1.10;;;19.90;99.90;;;;;;5076854;28;20789;-82
2022/07/03 07:35:23;;;;;;;6.68;1.27;;;20.00;99.90;;;;;;5112074;27;20048;-81
2022/07/03 07:37:48;;;;;;;3.70;1.38;;;20.10;99.90;;;;;;5112142;27;20192;-81
2022/07/03 07:40:14;;;;;;;3.95;1.38;;;20.20;99.90;;;;;;5077382;28;20822;-82
2022/07/03 07:42:42;;;;;;;6.47;1.83;;;20.30;99.90;;;;;;5078065;28;20126;-82
2022/07/03 07:45:09;;;;;;;6.72;1.67;;;20.80;99.90;;;;;;5078514;28;20116;-81
2022/07/03 07:47:35;;;;;;;4.20;1.58;;;20.70;99.90;;;;;;5079928;28;20044;-82
2022/07/03 07:50:01;;;;;;;3.90;1.40;;;20.80;99.90;;;;;;5078975;28;20056;-81
2022/07/03 07:52:26;;;;;;;4.15;1.63;;;20.90;99.90;;;;;;5079925;28;20108;-82
2022/07/03 07:54:52;;;;;;;4.65;1.60;;;21.00;99.90;;;;;;5080819;28;20045;-81
2022/07/03 07:57:18;;;;;;;3.20;1.60;;;21.10;99.90;;;;;;5080058;28;20044;-81
2022/07/03 07:59:44;;;;;;;5.65;1.40;;;21.30;99.90;;;;;;5075982;28;20048;-81
2022/07/03 08:07:39;;;;;;;6.72;1.60;;;21.70;99.90;;;;;;5078882;28;20048;-81
2022/07/03 08:10:04;;;;;;;3.25;0.93;;;21.90;99.90;;;;;;5077711;28;20086;-81
2022/07/03 08:12:30;;;;;;;3.75;1.08;;;21.90;99.90;;;;;;5075973;28;20128;-82
2022/07/03 08:14:56;;;;;;;2.45;1.00;;;22.00;99.90;;;;;;5078324;28;20092;-82
2022/07/03 08:17:21;;;;;;;3.80;1.27;;;22.10;99.90;;;;;;5078952;28;20051;-81
2022/07/03 08:19:47;;;;;;;4.63;1.25;;;22.20;99.90;;;;;;5104427;28;20167;-82
2022/07/03 08:22:13;;;;;;;2.35;1.10;;;22.30;99.90;;;;;;5075885;28;20044;-81
2022/07/03 08:24:38;;;;;;;2.67;1.00;;;22.30;99.90;;;;;;5078844;28;20044;-81
2022/07/03 08:27:05;;;;;;;3.65;1.10;;;22.30;99.90;;;;;;5076251;28;20485;-81
2022/07/03 08:29:31;;;;;;;2.28;0.80;;;22.20;99.90;;;;;;5071722;28;20057;-81
2022/07/03 08:31:57;;;;;;;2.25;0.65;;;22.20;99.90;;;;;;5073125;28;20040;-81
2022/07/03 08:34:22;;;;;;;3.17;0.77;;;22.20;99.90;;;;;;5075625;28;20083;-81
2022/07/03 08:36:49;;;;;;;4.25;1.10;;;22.20;99.90;;;;;;5078589;28;20047;-81
2022/07/03 08:39:14;;;;;;;3.50;0.80;;;22.20;99.90;;;;;;5077795;28;20059;-81
2022/07/03 08:41:41;;;;;;;1.42;0.70;;;22.10;99.90;;;;;;5075958;28;20036;-81
2022/07/03 08:44:11;;;;;;;3.83;0.77;;;22.10;99.90;;;;;;5078004;28;20093;-81
2022/07/03 08:46:38;;;;;;;4.10;0.75;;;21.90;99.90;;;;;;5076078;28;20070;-81
2022/07/03 08:49:05;;;;;;;2.72;0.90;;;21.90;99.90;;;;;;5077879;28;20056;-81
2022/07/03 08:51:32;;;;;;;2.72;0.80;;;22.10;99.90;;;;;;5077063;28;20044;-81
2022/07/03 08:54:01;;;;;;;3.90;0.90;;;22.20;99.90;;;;;;5076050;28;20771;-81
2022/07/03 08:56:27;;;;;;;2.28;0.77;;;22.30;99.90;;;;;;5075990;28;20051;-81
2022/07/03 08:58:56;;;;;;;3.75;0.90;;;22.10;99.90;;;;;;5069039;28;20063;-81
2022/07/03 09:01:22;;;;;;;4.18;0.80;;;22.00;99.90;;;;;;5077901;28;20156;-81
2022/07/03 09:03:49;;;;;;;2.92;0.90;;;21.90;99.90;;;;;;5079426;28;20760;-81
2022/07/03 09:06:16;;;;;;;3.78;0.80;;;21.80;99.90;;;;;;5081855;28;20052;-81
2022/07/03 09:08:43;;;;;;;4.97;1.05;;;21.80;99.90;;;;;;5076041;28;20047;-81
2022/07/03 09:11:10;;;;;;;3.30;0.70;;;21.80;99.90;;;;;;5081497;28;20060;-81
2022/07/03 09:13:39;;;;;;;4.43;0.90;;;21.80;99.90;;;;;;5071501;28;20225;-82
2022/07/03 09:16:04;;;;;;;3.15;0.70;;;21.90;99.90;;;;;;5076403;28;20044;-81
2022/07/03 09:18:39;;;;;;;1.98;0.60;;;22.20;99.90;;;;;;5078912;28;20050;-85
2022/07/03 09:21:05;;;;;;;1.65;0.50;;;22.10;99.90;;;;;;5075646;28;20474;-81
2022/07/03 09:23:41;;;;;;;5.40;0.70;;;22.30;99.90;;;;;;5083554;28;20909;-82
2022/07/03 09:26:13;;;;;;;2.45;0.77;;;22.50;99.90;;;;;;5085652;28;20047;-82
2022/07/03 09:28:43;;;;;;;2.90;0.70;;;22.80;99.90;;;;;;5081753;28;20118;-83
2022/07/03 09:31:11;;;;;;;2.65;0.57;;;22.80;99.90;;;;;;5076707;28;20055;-84
2022/07/03 09:33:50;;;;;;;2.25;0.50;;;22.90;99.90;;;;;;5107989;27;20044;-82
2022/07/03 09:36:17;;;;;;;3.05;0.60;;;23.00;99.90;;;;;;5080535;28;20047;-81
2022/07/03 09:38:46;;;;;;;3.00;0.60;;;23.20;99.90;;;;;;5076565;28;20514;-82
2022/07/03 09:41:11;;;;;;;2.65;0.60;;;23.30;99.90;;;;;;5084710;28;20057;-83
2022/07/03 09:43:42;;;;;;;1.88;0.40;;;23.30;99.90;;;;;;5074989;28;20039;-81
2022/07/03 09:46:08;;;;;;;1.38;0.55;;;23.40;99.70;;;;;;5108173;27;20131;-81
2022/07/03 09:48:41;;;;;;;4.45;0.50;;;23.60;98.80;;;;;;5073430;28;20084;-81
2022/07/03 09:51:19;;;;;;;4.25;0.50;;;23.60;98.80;;;;;;5069345;28;20059;-81
2022/07/03 09:53:55;;;;;;;0.82;0.40;;;23.70;98.60;;;;;;5073083;28;20048;-82
2022/07/03 09:56:23;;;;;;;2.17;0.35;;;23.70;97.20;;;;;;5078828;28;20056;-82
2022/07/03 09:59:03;;;;;;;1.77;0.50;;;23.80;95.90;;;;;;5071449;28;20064;-81
2022/07/03 10:01:29;;;;;;;3.28;0.60;;;23.80;96.80;;;;;;5078428;28;20047;-81
2022/07/03 10:04:09;;;;;;;1.00;0.35;;;23.90;96.90;;;;;;5059117;28;20068;-82
2022/07/03 10:06:51;;;;;;;1.27;0.40;;;23.90;96.30;;;;;;5075941;28;20048;-81
2022/07/03 10:09:22;;;;;;;2.00;0.45;;;23.90;96.40;;;;;;5100473;27;20043;-81
2022/07/03 10:11:48;;;;;;;1.58;0.40;;;24.00;96.50;;;;;;5110173;27;20463;-82
2022/07/03 10:14:17;;;;;;;3.10;0.40;;;24.00;95.90;;;;;;5107879;27;20121;-82
2022/07/03 10:16:43;;;;;;;1.95;0.40;;;24.10;95.50;;;;;;5076306;28;20123;-82
2022/07/03 10:19:14;;;;;;;1.40;0.60;;;24.30;95.50;;;;;;5110601;27;20059;-82
2022/07/03 10:21:41;;;;;;;1.73;0.60;;;24.40;94.90;;;;;;5074977;28;20047;-82
2022/07/03 10:24:09;;;;;;;1.23;0.50;;;24.50;95.70;;;;;;5068196;28;20048;-82
2022/07/03 10:26:35;;;;;;;1.90;0.65;;;24.50;95.90;;;;;;5061929;28;20478;-82
2022/07/03 10:29:02;;;;;;;1.50;0.50;;;24.50;96.00;;;;;;5074815;28;20071;-81
2022/07/03 10:31:28;;;;;;;2.58;0.70;;;24.40;95.30;;;;;;5074969;28;20108;-81
2022/07/03 10:33:54;;;;;;;2.08;0.50;;;24.40;95.50;;;;;;5080012;28;20567;-81
2022/07/03 10:36:21;;;;;;;3.00;0.50;;;24.40;95.50;;;;;;5071788;28;20078;-82
2022/07/03 10:38:49;;;;;;;2.00;0.70;;;24.30;95.50;;;;;;5067038;28;20062;-81
2022/07/03 10:44:46;;;;;;;5.25;0.70;;;24.50;95.60;;;;;;5069031;28;20155;-82
2022/07/03 10:47:40;;;;;;;1.02;0.40;;;24.60;94.70;;;;;;5078919;28;20056;-81
2022/07/03 10:50:18;;;;;;;2.13;0.50;;;24.50;95.70;;;;;;5075537;28;20164;-81
2022/07/03 10:52:44;;;;;;;3.40;0.63;;;24.70;95.50;;;;;;5061798;28;20044;-81
2022/07/03 10:55:11;;;;;;;2.70;0.70;;;24.60;95.70;;;;;;5059070;28;20366;-82
2022/07/03 10:57:39;;;;;;;1.52;0.50;;;24.60;96.00;;;;;;5057921;28;20125;-82
2022/07/03 11:00:16;;;;;;;1.40;0.50;;;24.70;95.90;;;;;;5095041;27;20073;-82
2022/07/03 11:02:47;;;;;;;2.10;0.68;;;24.70;95.30;;;;;;5061282;28;20058;-82
2022/07/03 11:05:21;;;;;;;1.20;0.63;;;24.70;95.30;;;;;;5071298;28;20078;-82
2022/07/03 11:07:53;;;;;;;1.35;0.47;;;24.80;95.30;;;;;;5073209;28;20731;-84
2022/07/03 11:10:18;;;;;;;2.42;0.50;;;24.90;94.90;;;;;;5067250;28;20060;-82
2022/07/03 11:12:56;;;;;;;1.33;0.50;;;25.00;94.90;;;;;;5065698;28;20044;-82
2022/07/03 11:15:33;;;;;;;4.30;0.70;;;25.10;94.90;;;;;;5069707;28;20600;-82
2022/07/03 11:18:18;;;;;;;2.17;0.57;;;25.20;94.50;;;;;;5058458;28;20048;-82
2022/07/03 11:20:43;;;;;;;4.03;0.60;;;25.30;93.90;;;;;;5059772;28;20141;-83
2022/07/03 11:23:27;;;;;;;1.65;0.50;;;25.40;93.80;;;;;;5066162;28;20102;-83
2022/07/03 11:25:59;;;;;;;2.78;0.50;;;25.30;93.80;;;;;;5072943;28;20556;-80
2022/07/03 11:28:34;;;;;;;1.45;0.63;;;25.20;94.00;;;;;;5099118;27;20062;-81
2022/07/03 11:33:45;;;;;;;2.83;0.57;;;25.30;93.40;;;;;;5068377;28;20143;-80
2022/07/03 11:36:17;;;;;;;1.67;0.50;;;25.30;93.70;;;;;;5073992;28;20582;-79
2022/07/03 11:38:51;;;;;;;1.98;0.60;;;25.40;93.70;;;;;;5072228;28;20113;-77
2022/07/03 11:41:17;;;;;;;2.90;0.60;;;25.50;93.00;;;;;;5061474;28;20122;-78
2022/07/03 11:43:50;;;;;;;4.22;0.65;;;25.60;92.50;;;;;;5073030;28;20050;-78
2022/07/03 11:46:21;;;;;;;2.30;0.80;;;25.60;92.00;;;;;;5074483;28;20048;-82
2022/07/03 11:48:47;;;;;;;2.35;0.70;;;25.60;92.50;;;;;;5091032;28;20785;-81
2022/07/03 11:51:14;;;;;;;2.47;0.70;;;25.50;92.40;;;;;;5096313;27;20085;-86
2022/07/03 11:53:40;;;;;;;5.15;0.80;;;25.40;92.50;;;;;;5060561;28;20048;-81
2022/07/03 11:56:08;;;;;;;2.65;0.70;;;25.20;92.80;;;;;;5063573;28;20146;-81
2022/07/03 11:58:48;;;;;;;3.33;0.70;;;25.00;93.30;;;;;;5075569;28;20601;-81
2022/07/03 12:01:26;;;;;;;2.92;0.70;;;25.30;93.40;;;;;;5073345;28;20059;-81
2022/07/03 12:04:22;;;;;;;5.13;1.08;;;25.30;93.20;;;;;;5077199;28;20151;-81
2022/07/03 12:06:52;;;;;;;3.22;0.75;;;25.30;93.50;;;;;;5075200;28;20166;-83
2022/07/03 12:09:29;;;;;;;3.38;0.80;;;25.40;93.30;;;;;;5108318;28;20049;-81
2022/07/03 12:12:03;;;;;;;5.43;0.90;;;25.50;93.20;;;;;;5058751;28;20686;-80
2022/07/03 12:14:42;;;;;;;3.78;0.80;;;25.50;92.90;;;;;;5056396;28;20135;-80
2022/07/03 12:17:14;;;;;;;6.95;1.33;;;25.30;93.70;;;;;;5107483;28;20086;-80
2022/07/03 12:19:45;;;;;;;4.05;0.90;;;25.10;94.10;;;;;;5076724;28;20724;-81
2022/07/03 12:22:11;;;;;;;4.25;1.00;;;24.90;94.40;;;;;;5076301;28;20051;-81
2022/07/03 12:24:36;;;;;;;3.05;0.80;;;24.90;94.60;;;;;;5107583;28;20055;-80
2022/07/03 12:27:04;;;;;;;5.07;1.00;;;25.10;94.70;;;;;;5110675;28;20044;-81
2022/07/03 12:29:31;;;;;;;1.92;0.65;;;24.90;94.10;;;;;;5110344;28;20783;-81
2022/07/03 12:31:56;;;;;;;3.53;0.80;;;24.90;94.10;;;;;;5063898;28;20041;-80
2022/07/03 12:34:22;;;;;;;3.72;0.60;;;24.90;94.10;;;;;;5069779;28;20048;-81
2022/07/03 12:36:58;;;;;;;3.33;0.60;;;25.00;93.80;;;;;;5078128;28;20044;-81
2022/07/03 12:39:43;;;;;;;5.00;0.75;;;25.30;93.30;;;;;;5071560;28;20066;-81
2022/07/03 12:42:22;;;;;;;4.47;0.77;;;25.30;92.80;;;;;;5102630;27;20556;-81
2022/07/03 12:45:02;;;;;;;2.55;0.60;;;25.20;93.20;;;;;;5070270;28;20059;-81
2022/07/03 12:47:29;;;;;;;2.88;0.70;;;25.20;93.70;;;;;;5062441;28;20055;-81
2022/07/03 12:50:01;;;;;;;3.78;0.80;;;25.30;93.50;;;;;;5078079;28;20047;-81
2022/07/03 12:52:28;;;;;;;3.63;0.70;;;25.30;93.30;;;;;;5104437;27;20586;-81
2022/07/03 12:54:54;;;;;;;4.47;0.68;;;25.30;93.50;;;;;;5081263;28;20040;-81
2022/07/03 13:00:17;;;;;;;3.85;0.77;;;25.20;93.70;;;;;;5067981;28;20086;-81
2022/07/03 13:02:48;;;;;;;4.03;0.82;;;25.30;93.90;;;;;;5064618;28;20044;-81
2022/07/03 13:05:22;;;;;;;4.38;0.70;;;25.40;94.20;;;;;;5082395;28;20802;-81
2022/07/03 13:07:55;;;;;;;5.05;0.82;;;25.60;94.10;;;;;;5075737;28;20570;-81
2022/07/03 13:10:23;;;;;;;3.58;0.70;;;25.50;93.90;;;;;;5078462;28;20517;-81
2022/07/03 13:12:58;;;;;;;2.47;0.63;;;25.40;94.00;;;;;;5078965;28;20044;-81
2022/07/03 13:15:28;;;;;;;3.28;0.88;;;25.30;94.80;;;;;;5081333;28;20831;-81
2022/07/03 13:17:54;;;;;;;5.63;1.00;;;25.40;94.50;;;;;;5080738;28;20055;-82
2022/07/03 13:20:24;;;;;;;8.73;0.90;;;25.30;93.70;;;;;;5108747;27;20118;-81